Bethlehem, New Hampshire
Current Conditions -  °F | °C
As of 8:52 AM on Wednesday 28 Jan 2015 (Local Time) from KHIE Reporting Station
Overcast Overcast  
Wind Chill: -3°   Ceiling: 6000
Heat Index:   Visibility: 10mi
Dew Point:   Wind: 7mph
Humidity: 70%   Direction: 350°N
Pressure: 29.95"   Gusts: NA
Location:  44.28°N, 71.69°W
Report Text: KHIE 281352Z AUTO 35006KT 10SM OVC060 M13/M18 A2995 RMK AO2 SLP168 T11331178
Loading
Personal Weather Stations






























Interactive Weather Map New forecast layout! Learn more

10-Day Weather Forecast

Advertisements
Track Severe Weather on mobile